Flight Track Log - Related Links

Times and Time Zones

All times are in EDT time to prevent confusion due to time zone crossing. See the N10JY flight status page for this flight to view local times or setup timezone preferences in your user account.

Time Position Orientation Groundspeed Altitude Reporting Facility
EDT Latitude Longitude Course Direction KTS MPH feet Rate Location/Type
Sat 05:05:43 PM 42.1772 -76.9858 North 360 414 4,000  Level New York Center
Sat 05:07:32 PM 42.2919 -77.0686 332° Northwest 291 335 4,100 2,130 Climbing Cleveland Center
Sat 05:08:32 PM 42.3558 -77.1128 333° Northwest 271 312 10,000 2,250 Climbing Cleveland Center
Sat 05:09:32 PM 42.4200 -77.1628 330° Northwest 263 303 8,600 -129 Descending Cleveland Center
Sat 05:10:00 PM 42.3841 -77.0797 331° Northwest  Level FlightAware Approximate
Sat 05:10:05 PM 42.4647 -77.1997 329° Northwest 296 341 9,800  Level Cleveland Center
Sat 05:10:32 PM 42.4967 -77.2178 337° Northwest 280 322 9,900 250 Climbing Cleveland Center
Sat 05:11:00 PM 42.4468 -77.1167 North  Level FlightAware Approximate
Sat 05:11:17 PM 42.5692 -77.2731 331° Northwest 364 419 10,100  Level Cleveland Center
Sat 05:11:32 PM 42.5839 -77.2836 332° Northwest 321 369 10,000 -80 Descending Cleveland Center
Sat 05:12:32 PM 42.6753 -77.3381 336° Northwest 349 402 10,000 -690 Level Cleveland Center
Sat 05:13:25 PM 42.7550 -77.3567 350° North 292 336 8,700 -1,850 Descending Cleveland Center
Sat 05:14:19 PM 42.8261 -77.3728 351° North 277 319 6,700 -2,087 Descending Cleveland Center
Sat 05:15:20 PM 42.9014 -77.3803 356° North 266 306 4,700 -1,219 Descending Cleveland Center
Sat 05:16:27 PM 42.9792 -77.3961 352° North 211 243 4,100 -661 Descending Cleveland Center
Sat 05:17:27 PM 43.0336 -77.4075 351° North 198 228 3,300 -793 Descending Cleveland Center
Sat 05:18:28 PM 43.0839 -77.4222 348° North 188 216 2,500 -347 Descending Cleveland Center
Sat 05:19:28 PM 43.1225 -77.4542 329° Northwest 178 205 2,600  Climbing Cleveland Center
Sat 05:20:29 PM 43.1264 -77.5225 274° West 175 201 2,500 -443 Descending Cleveland Center
Sat 05:21:30 PM 43.1236 -77.5822 266° West 135 155 1,700 -694 Descending Cleveland Center
Sat 05:22:30 PM 43.1228 -77.6336 269° West 131 151 1,100 -600 Descending Cleveland Center

Login

Don't have an account? Register now (free) for customized features, flight alerts, and more!